PWSweather.com
Personal Weather Stations
Station Observations
RAINWISE1
Rainwise Factory, Bar Harbor, ME 04609

Rainwise FactoryBar Harbor, ME 04609

Lat: 44.3897429696629, Lon: -68.2077813148499

Elevation: 29

Station Type: Rainwise MK-III

Latest ConditionsUpdated 10:45:00 PM EST Sunday, Feb 19, 2017
Currently Today's Max Today's Min Today's Average
Temperature 39.3°F4.1°C 54.6°F12.6°C 25.5°F-3.6°C 41.2°F5.1°C
Dew Point 30.0°F-1.1°C 38.2°F3.4°C 25.0°F-3.9°C 33.2°F0.7°C
Winds Calm Calm 8.5 mph NNW13.7 kmh NNW - 3.0 mph 4.8 kmh
Wind Gusts -- 14.7 mph23.7 kmh - -
Humidity 69% 100% 48% 75%
Pressure 0.00 in0.0 mb 29.85 in1010.8 mb 0.00 in0.0 mb -
Hour Temp Dew Point Humidity Winds Wind Gusts Pressure Precip Precip Rate Daily Precip Total
10:45 PM 39.3°F4.1°C 30.0°F-1.1°C 69% Calm Calm -- 0.00 in0.0 mb 0.00 in0.0 mm 0.00 in0.0 mm 0.00 in0.0 mm
10:40 PM 39.5°F4.2°C 30.2°F-1.0°C 69% Calm Calm -- 0.00 in0.0 mb 0.00 in0.0 mm 0.00 in0.0 mm 0.00 in0.0 mm
10:35 PM 39.6°F4.2°C 30.3°F-0.9°C 69% Calm Calm -- 0.00 in0.0 mb 0.00 in0.0 mm 0.00 in0.0 mm 0.00 in0.0 mm
10:30 PM 39.7°F4.3°C 30.0°F-1.1°C 68% Calm Calm -- 0.00 in0.0 mb 0.00 in0.0 mm 0.00 in0.0 mm 0.00 in0.0 mm
10:25 PM 40.0°F4.4°C 30.3°F-0.9°C 68% Calm Calm -- 0.00 in0.0 mb 0.00 in0.0 mm 0.00 in0.0 mm 0.00 in0.0 mm
10:20 PM 40.1°F4.5°C 30.4°F-0.9°C 68% Calm Calm -- 0.00 in0.0 mb 0.00 in0.0 mm 0.00 in0.0 mm 0.00 in0.0 mm
10:15 PM 40.1°F4.5°C 30.8°F-0.7°C 69% Calm Calm -- 0.00 in0.0 mb 0.00 in0.0 mm 0.00 in0.0 mm 0.00 in0.0 mm
10:10 PM 40.1°F4.5°C 31.1°F-0.5°C 70% Calm Calm -- 0.00 in0.0 mb 0.00 in0.0 mm 0.00 in0.0 mm 0.00 in0.0 mm
10:06 PM 40.2°F4.6°C 31.2°F-0.4°C 70% 8.2 mph NNW13.2 kmh NNW 13.8 mph22.2 kmh 29.84 in1010.5 mb 0.00 in0.0 mm 0.00 in0.0 mm 0.00 in0.0 mm
10:01 PM 40.3°F4.6°C 31.7°F-0.2°C 71% 8.5 mph NNW13.7 kmh NNW 11.1 mph17.9 kmh 29.84 in1010.5 mb 0.00 in0.0 mm 0.00 in0.0 mm 0.00 in0.0 mm
09:56 PM 40.3°F4.6°C 31.7°F-0.2°C 71% 8.3 mph NNW13.4 kmh NNW 10.3 mph16.6 kmh 29.85 in1010.8 mb 0.00 in0.0 mm 0.00 in0.0 mm 0.00 in0.0 mm
09:51 PM 40.5°F4.7°C 32.2°F0.1°C 72% 5.9 mph NNW9.5 kmh NNW 8.5 mph13.7 kmh 29.84 in1010.5 mb 0.00 in0.0 mm 0.00 in0.0 mm 0.00 in0.0 mm
09:47 PM 40.6°F4.8°C 32.3°F0.2°C 72% 6.5 mph N10.5 kmh N 10.1 mph16.3 kmh 29.84 in1010.5 mb 0.00 in0.0 mm 0.00 in0.0 mm 0.00 in0.0 mm
09:42 PM 40.7°F4.8°C 32.7°F0.4°C 73% 8.4 mph N13.5 kmh N 12.2 mph19.6 kmh 29.84 in1010.5 mb 0.00 in0.0 mm 0.00 in0.0 mm 0.00 in0.0 mm
09:37 PM 40.7°F4.8°C 32.7°F0.4°C 73% 7.8 mph N12.6 kmh N 11.9 mph19.2 kmh 29.84 in1010.5 mb 0.00 in0.0 mm 0.00 in0.0 mm 0.00 in0.0 mm
09:32 PM 41.0°F5.0°C 33.0°F0.6°C 73% 6.2 mph NNW10.0 kmh NNW 10.1 mph16.3 kmh 29.84 in1010.5 mb 0.00 in0.0 mm 0.00 in0.0 mm 0.00 in0.0 mm
09:27 PM 41.1°F5.1°C 33.1°F0.6°C 73% 6.7 mph N10.8 kmh N 8.9 mph14.3 kmh 29.84 in1010.5 mb 0.00 in0.0 mm 0.00 in0.0 mm 0.00 in0.0 mm
09:22 PM 41.2°F5.1°C 33.2°F0.7°C 73% 6.3 mph N10.1 kmh N 9.4 mph15.1 kmh 29.84 in1010.5 mb 0.00 in0.0 mm 0.00 in0.0 mm 0.00 in0.0 mm
09:17 PM 41.2°F5.1°C 33.2°F0.7°C 73% 7.9 mph N12.7 kmh N 11.5 mph18.5 kmh 29.83 in1010.2 mb 0.00 in0.0 mm 0.00 in0.0 mm 0.00 in0.0 mm
09:13 PM 41.3°F5.2°C 33.3°F0.7°C 73% 7.4 mph NNW11.9 kmh NNW 10.1 mph16.3 kmh 29.83 in1010.2 mb 0.00 in0.0 mm 0.00 in0.0 mm 0.00 in0.0 mm
09:08 PM 41.4°F5.2°C 33.7°F0.9°C 74% 6.4 mph NNW10.3 kmh NNW 9.0 mph14.5 kmh 29.83 in1010.2 mb 0.00 in0.0 mm 0.00 in0.0 mm 0.00 in0.0 mm
09:03 PM 41.5°F5.3°C 33.5°F0.8°C 73% 6.4 mph N10.3 kmh N 8.7 mph14.0 kmh 29.83 in1010.2 mb 0.00 in0.0 mm 0.00 in0.0 mm 0.00 in0.0 mm
08:58 PM 41.5°F5.3°C 33.5°F0.8°C 73% 5.1 mph N8.2 kmh N 7.9 mph12.7 kmh 29.83 in1010.2 mb 0.00 in0.0 mm 0.00 in0.0 mm 0.00 in0.0 mm
08:53 PM 41.7°F5.4°C 33.7°F0.9°C 73% 4.9 mph N7.9 kmh N 7.1 mph11.4 kmh 29.83 in1010.2 mb 0.00 in0.0 mm 0.00 in0.0 mm 0.00 in0.0 mm
08:48 PM 41.7°F5.4°C 33.4°F0.8°C 72% 6.6 mph N10.6 kmh N 9.6 mph15.4 kmh 29.83 in1010.2 mb 0.00 in0.0 mm 0.00 in0.0 mm 0.00 in0.0 mm
08:43 PM 41.8°F5.4°C 33.4°F0.8°C 72% 5.9 mph N9.5 kmh N 9.9 mph15.9 kmh 29.83 in1010.2 mb 0.00 in0.0 mm 0.00 in0.0 mm 0.00 in0.0 mm
08:38 PM 41.8°F5.4°C 33.4°F0.8°C 72% 5.0 mph NNW8.0 kmh NNW 7.0 mph11.3 kmh 29.82 in1009.8 mb 0.00 in0.0 mm 0.00 in0.0 mm 0.00 in0.0 mm
08:34 PM 41.8°F5.4°C 33.4°F0.8°C 72% 6.7 mph N10.8 kmh N 9.7 mph15.6 kmh 29.82 in1009.8 mb 0.00 in0.0 mm 0.00 in0.0 mm 0.00 in0.0 mm
08:29 PM 41.8°F5.4°C 33.4°F0.8°C 72% 5.3 mph N8.5 kmh N 7.2 mph11.6 kmh 29.82 in1009.8 mb 0.00 in0.0 mm 0.00 in0.0 mm 0.00 in0.0 mm
08:24 PM 42.0°F5.6°C 33.3°F0.7°C 71% 4.2 mph NNW6.8 kmh NNW 6.1 mph9.8 kmh 29.82 in1009.8 mb 0.00 in0.0 mm 0.00 in0.0 mm 0.00 in0.0 mm
08:19 PM 42.1°F5.6°C 33.4°F0.8°C 71% 4.5 mph NNW7.2 kmh NNW 6.6 mph10.6 kmh 29.82 in1009.8 mb 0.00 in0.0 mm 0.00 in0.0 mm 0.00 in0.0 mm
08:14 PM 42.1°F5.6°C 33.4°F0.8°C 71% 4.6 mph N7.4 kmh N 6.6 mph10.6 kmh 29.81 in1009.5 mb 0.00 in0.0 mm 0.00 in0.0 mm 0.00 in0.0 mm
08:09 PM 42.2°F5.7°C 33.5°F0.8°C 71% 4.5 mph NNW7.2 kmh NNW 6.2 mph10.0 kmh 29.81 in1009.5 mb 0.00 in0.0 mm 0.00 in0.0 mm 0.00 in0.0 mm
08:03 PM 42.2°F5.7°C 33.5°F0.8°C 71% 4.8 mph NNW7.7 kmh NNW 7.1 mph11.4 kmh 29.81 in1009.5 mb 0.00 in0.0 mm 0.00 in0.0 mm 0.00 in0.0 mm
07:58 PM 42.2°F5.7°C 33.5°F0.8°C 71% 4.3 mph N6.9 kmh N 6.3 mph10.1 kmh 29.80 in1009.1 mb 0.00 in0.0 mm 0.00 in0.0 mm 0.00 in0.0 mm
07:52 PM 42.2°F5.7°C 33.5°F0.8°C 71% 5.2 mph NNW8.4 kmh NNW 7.3 mph11.7 kmh 29.80 in1009.1 mb 0.00 in0.0 mm 0.00 in0.0 mm 0.00 in0.0 mm
07:47 PM 42.5°F5.8°C 33.8°F1.0°C 71% 4.9 mph N7.9 kmh N 7.8 mph12.6 kmh 29.79 in1008.8 mb 0.00 in0.0 mm 0.00 in0.0 mm 0.00 in0.0 mm
07:40 PM 42.3°F5.7°C 33.6°F0.9°C 71% Calm Calm -- 0.00 in0.0 mb 0.00 in0.0 mm 0.00 in0.0 mm 0.00 in0.0 mm
07:34 PM 42.2°F5.7°C 33.5°F0.8°C 71% Calm Calm -- 0.00 in0.0 mb 0.00 in0.0 mm 0.00 in0.0 mm 0.00 in0.0 mm
07:30 PM 42.2°F5.7°C 33.5°F0.8°C 71% Calm Calm -- 0.00 in0.0 mb 0.00 in0.0 mm 0.00 in0.0 mm 0.00 in0.0 mm
07:25 PM 42.1°F5.6°C 33.7°F0.9°C 72% Calm Calm -- 0.00 in0.0 mb 0.00 in0.0 mm 0.00 in0.0 mm 0.00 in0.0 mm
07:20 PM 41.9°F5.5°C 33.5°F0.8°C 72% Calm Calm -- 0.00 in0.0 mb 0.00 in0.0 mm 0.00 in0.0 mm 0.00 in0.0 mm
07:15 PM 41.8°F5.4°C 33.4°F0.8°C 72% Calm Calm -- 0.00 in0.0 mb 0.00 in0.0 mm 0.00 in0.0 mm 0.00 in0.0 mm
07:11 PM 41.8°F5.4°C 33.4°F0.8°C 72% 3.0 mph NNW4.8 kmh NNW 4.2 mph6.8 kmh 29.78 in1008.5 mb 0.00 in0.0 mm 0.00 in0.0 mm 0.00 in0.0 mm
07:06 PM 41.8°F5.4°C 33.4°F0.8°C 72% 3.8 mph N6.1 kmh N 5.7 mph9.2 kmh 29.78 in1008.5 mb 0.00 in0.0 mm 0.00 in0.0 mm 0.00 in0.0 mm
07:01 PM 42.0°F5.6°C 33.6°F0.9°C 72% 3.3 mph NNW5.3 kmh NNW 4.0 mph6.4 kmh 29.78 in1008.5 mb 0.00 in0.0 mm 0.00 in0.0 mm 0.00 in0.0 mm
06:56 PM 42.1°F5.6°C 33.7°F0.9°C 72% 4.1 mph N6.6 kmh N 6.0 mph9.7 kmh 29.77 in1008.1 mb 0.00 in0.0 mm 0.00 in0.0 mm 0.00 in0.0 mm
06:52 PM 42.2°F5.7°C 33.5°F0.8°C 71% 4.5 mph N7.2 kmh N 6.4 mph10.3 kmh 29.77 in1008.1 mb 0.00 in0.0 mm 0.00 in0.0 mm 0.00 in0.0 mm
06:46 PM 42.6°F5.9°C 33.9°F1.1°C 71% 5.5 mph N8.9 kmh N 7.9 mph12.7 kmh 29.77 in1008.1 mb 0.00 in0.0 mm 0.00 in0.0 mm 0.00 in0.0 mm
06:42 PM 42.6°F5.9°C 33.9°F1.1°C 71% 6.4 mph NNW10.3 kmh NNW 10.1 mph16.3 kmh 29.77 in1008.1 mb 0.00 in0.0 mm 0.00 in0.0 mm 0.00 in0.0 mm
06:37 PM 42.7°F5.9°C 34.3°F1.3°C 72% 6.5 mph NNW10.5 kmh NNW 9.2 mph14.8 kmh 29.77 in1008.1 mb 0.00 in0.0 mm 0.00 in0.0 mm 0.00 in0.0 mm
06:32 PM 42.7°F5.9°C 34.3°F1.3°C 72% 5.0 mph NNW8.0 kmh NNW 6.2 mph10.0 kmh 29.77 in1008.1 mb 0.00 in0.0 mm 0.00 in0.0 mm 0.00 in0.0 mm
06:27 PM 42.8°F6.0°C 34.4°F1.3°C 72% 4.6 mph NNW7.4 kmh NNW 5.8 mph9.3 kmh 29.77 in1008.1 mb 0.00 in0.0 mm 0.00 in0.0 mm 0.00 in0.0 mm
06:22 PM 43.1°F6.2°C 34.3°F1.3°C 71% 5.5 mph N8.9 kmh N 8.3 mph13.4 kmh 29.76 in1007.8 mb 0.00 in0.0 mm 0.00 in0.0 mm 0.00 in0.0 mm
06:18 PM 43.3°F6.3°C 34.5°F1.4°C 71% 3.8 mph NNW6.1 kmh NNW 5.8 mph9.3 kmh 29.76 in1007.8 mb 0.00 in0.0 mm 0.00 in0.0 mm 0.00 in0.0 mm
06:13 PM 43.7°F6.5°C 34.9°F1.6°C 71% 3.3 mph NNW5.3 kmh NNW 4.7 mph7.6 kmh 29.76 in1007.8 mb 0.00 in0.0 mm 0.00 in0.0 mm 0.00 in0.0 mm
06:08 PM 43.9°F6.6°C 35.1°F1.7°C 71% 3.9 mph N6.3 kmh N 5.8 mph9.3 kmh 29.76 in1007.8 mb 0.00 in0.0 mm 0.00 in0.0 mm 0.00 in0.0 mm
06:03 PM 44.2°F6.8°C 35.0°F1.7°C 70% 4.4 mph NNW7.1 kmh NNW 6.5 mph10.5 kmh 29.75 in1007.5 mb 0.00 in0.0 mm 0.00 in0.0 mm 0.00 in0.0 mm
05:58 PM 44.3°F6.8°C 35.1°F1.7°C 70% 5.0 mph NNW8.0 kmh NNW 7.4 mph11.9 kmh 29.75 in1007.5 mb 0.00 in0.0 mm 0.00 in0.0 mm 0.00 in0.0 mm
05:53 PM 44.6°F7.0°C 35.4°F1.9°C 70% 6.0 mph NNW9.7 kmh NNW 9.1 mph14.6 kmh 29.74 in1007.1 mb 0.00 in0.0 mm 0.00 in0.0 mm 0.00 in0.0 mm
05:49 PM 44.7°F7.1°C 35.5°F1.9°C 70% 5.8 mph NNW9.3 kmh NNW 9.4 mph15.1 kmh 29.74 in1007.1 mb 0.00 in0.0 mm 0.00 in0.0 mm 0.00 in0.0 mm
05:44 PM 44.7°F7.1°C 35.5°F1.9°C 70% 7.3 mph NNW11.7 kmh NNW 11.2 mph18.0 kmh 29.74 in1007.1 mb 0.00 in0.0 mm 0.00 in0.0 mm 0.00 in0.0 mm
05:39 PM 44.8°F7.1°C 36.0°F2.2°C 71% 5.7 mph N9.2 kmh N 7.9 mph12.7 kmh 29.73 in1006.8 mb 0.00 in0.0 mm 0.00 in0.0 mm 0.00 in0.0 mm
05:34 PM 45.2°F7.3°C 36.4°F2.4°C 71% 5.6 mph N9.0 kmh N 7.7 mph12.4 kmh 29.73 in1006.8 mb 0.00 in0.0 mm 0.00 in0.0 mm 0.00 in0.0 mm
05:29 PM 45.2°F7.3°C 36.4°F2.4°C 71% 5.8 mph N9.3 kmh N 9.3 mph15.0 kmh 29.73 in1006.8 mb 0.00 in0.0 mm 0.00 in0.0 mm 0.00 in0.0 mm
05:24 PM 45.3°F7.4°C 36.5°F2.5°C 71% 5.9 mph NNW9.5 kmh NNW 8.6 mph13.8 kmh 29.73 in1006.8 mb 0.00 in0.0 mm 0.00 in0.0 mm 0.00 in0.0 mm
05:19 PM 45.5°F7.5°C 36.7°F2.6°C 71% 6.5 mph N10.5 kmh N 9.0 mph14.5 kmh 29.73 in1006.8 mb 0.00 in0.0 mm 0.00 in0.0 mm 0.00 in0.0 mm
05:14 PM 45.5°F7.5°C 36.7°F2.6°C 71% 6.2 mph NNW10.0 kmh NNW 9.4 mph15.1 kmh 29.72 in1006.4 mb 0.00 in0.0 mm 0.00 in0.0 mm 0.00 in0.0 mm
05:09 PM 45.6°F7.6°C 36.4°F2.4°C 70% 4.9 mph N7.9 kmh N 7.3 mph11.7 kmh 29.72 in1006.4 mb 0.00 in0.0 mm 0.00 in0.0 mm 0.00 in0.0 mm
05:04 PM 45.8°F7.7°C 36.2°F2.3°C 69% 5.0 mph N8.0 kmh N 6.6 mph10.6 kmh 29.72 in1006.4 mb 0.00 in0.0 mm 0.00 in0.0 mm 0.00 in0.0 mm
04:59 PM 46.2°F7.9°C 36.2°F2.3°C 68% 5.9 mph N9.5 kmh N 8.6 mph13.8 kmh 29.71 in1006.1 mb 0.00 in0.0 mm 0.00 in0.0 mm 0.00 in0.0 mm
04:54 PM 46.7°F8.2°C 36.3°F2.4°C 67% 4.6 mph N7.4 kmh N 6.5 mph10.5 kmh 29.71 in1006.1 mb 0.00 in0.0 mm 0.00 in0.0 mm 0.00 in0.0 mm
04:49 PM 46.8°F8.2°C 36.4°F2.4°C 67% 4.4 mph NNW7.1 kmh NNW 5.7 mph9.2 kmh 29.70 in1005.8 mb 0.00 in0.0 mm 0.00 in0.0 mm 0.00 in0.0 mm
04:44 PM 46.7°F8.2°C 36.7°F2.6°C 68% 7.4 mph NNW11.9 kmh NNW 10.1 mph16.3 kmh 29.70 in1005.8 mb 0.00 in0.0 mm 0.00 in0.0 mm 0.00 in0.0 mm
04:39 PM 46.9°F8.3°C 36.9°F2.7°C 68% 3.2 mph NNW5.1 kmh NNW 4.2 mph6.8 kmh 29.70 in1005.8 mb 0.00 in0.0 mm 0.00 in0.0 mm 0.00 in0.0 mm
04:34 PM 47.4°F8.6°C 37.4°F3.0°C 68% 3.6 mph NNW5.8 kmh NNW 4.8 mph7.7 kmh 29.70 in1005.8 mb 0.00 in0.0 mm 0.00 in0.0 mm 0.00 in0.0 mm
04:29 PM 47.7°F8.7°C 37.3°F2.9°C 67% 3.1 mph NNW5.0 kmh NNW 4.5 mph7.2 kmh 29.69 in1005.4 mb 0.00 in0.0 mm 0.00 in0.0 mm 0.00 in0.0 mm
04:24 PM 48.0°F8.9°C 37.6°F3.1°C 67% 2.9 mph NNW4.7 kmh NNW 4.2 mph6.8 kmh 29.69 in1005.4 mb 0.00 in0.0 mm 0.00 in0.0 mm 0.00 in0.0 mm
04:19 PM 48.0°F8.9°C 37.6°F3.1°C 67% 2.4 mph NNW3.9 kmh NNW 3.3 mph5.3 kmh 29.69 in1005.4 mb 0.00 in0.0 mm 0.00 in0.0 mm 0.00 in0.0 mm
04:14 PM 47.7°F8.7°C 37.7°F3.2°C 68% 3.0 mph NNW4.8 kmh NNW 4.8 mph7.7 kmh 29.68 in1005.1 mb 0.00 in0.0 mm 0.00 in0.0 mm 0.00 in0.0 mm
04:09 PM 47.3°F8.5°C 37.3°F2.9°C 68% 1.5 mph NNW2.4 kmh NNW 2.8 mph4.5 kmh 29.68 in1005.1 mb 0.00 in0.0 mm 0.00 in0.0 mm 0.00 in0.0 mm
04:04 PM 47.5°F8.6°C 37.5°F3.1°C 68% 2.0 mph NNW3.2 kmh NNW 3.0 mph4.8 kmh 29.68 in1005.1 mb 0.00 in0.0 mm 0.00 in0.0 mm 0.00 in0.0 mm
03:59 PM 47.7°F8.7°C 37.3°F2.9°C 67% 2.7 mph N4.3 kmh N 3.7 mph6.0 kmh 29.68 in1005.1 mb 0.00 in0.0 mm 0.00 in0.0 mm 0.00 in0.0 mm
03:54 PM 47.9°F8.8°C 37.5°F3.1°C 67% 3.7 mph NNE6.0 kmh NNE 5.3 mph8.5 kmh 29.67 in1004.7 mb 0.00 in0.0 mm 0.00 in0.0 mm 0.00 in0.0 mm
03:49 PM 48.1°F8.9°C 37.7°F3.2°C 67% 3.6 mph N5.8 kmh N 5.4 mph8.7 kmh 29.67 in1004.7 mb 0.00 in0.0 mm 0.00 in0.0 mm 0.00 in0.0 mm
03:44 PM 47.8°F8.8°C 37.4°F3.0°C 67% 4.3 mph NNE6.9 kmh NNE 5.9 mph9.5 kmh 29.67 in1004.7 mb 0.00 in0.0 mm 0.00 in0.0 mm 0.00 in0.0 mm
03:39 PM 47.3°F8.5°C 37.7°F3.2°C 69% 4.0 mph N6.4 kmh N 6.5 mph10.5 kmh 29.67 in1004.7 mb 0.00 in0.0 mm 0.00 in0.0 mm 0.00 in0.0 mm
03:34 PM 46.9°F8.3°C 37.6°F3.1°C 70% 2.6 mph NNW4.2 kmh NNW 3.5 mph5.6 kmh 29.67 in1004.7 mb 0.00 in0.0 mm 0.00 in0.0 mm 0.00 in0.0 mm
03:29 PM 46.3°F7.9°C 37.8°F3.2°C 72% 3.0 mph NNW4.8 kmh NNW 4.3 mph6.9 kmh 29.67 in1004.7 mb 0.00 in0.0 mm 0.00 in0.0 mm 0.00 in0.0 mm
03:24 PM 46.0°F7.8°C 38.2°F3.4°C 74% 2.2 mph N3.5 kmh N 3.2 mph5.1 kmh 29.67 in1004.7 mb 0.00 in0.0 mm 0.00 in0.0 mm 0.00 in0.0 mm
03:19 PM 46.3°F7.9°C 38.1°F3.4°C 73% 1.2 mph NNW1.9 kmh NNW 2.6 mph4.2 kmh 29.67 in1004.7 mb 0.00 in0.0 mm 0.00 in0.0 mm 0.00 in0.0 mm
03:14 PM 46.9°F8.3°C 38.0°F3.3°C 71% 1.9 mph NNW3.1 kmh NNW 3.2 mph5.1 kmh 29.67 in1004.7 mb 0.00 in0.0 mm 0.00 in0.0 mm 0.00 in0.0 mm
03:09 PM 46.8°F8.2°C 37.9°F3.3°C 71% 2.0 mph NNW3.2 kmh NNW 3.4 mph5.5 kmh 29.66 in1004.4 mb 0.00 in0.0 mm 0.00 in0.0 mm 0.00 in0.0 mm
03:04 PM 45.8°F7.7°C 36.9°F2.7°C 71% 2.9 mph W4.7 kmh W 5.4 mph8.7 kmh 29.66 in1004.4 mb 0.00 in0.0 mm 0.00 in0.0 mm 0.00 in0.0 mm
02:59 PM 45.8°F7.7°C 36.2°F2.3°C 69% 1.4 mph SW2.3 kmh SW 2.4 mph3.9 kmh 29.66 in1004.4 mb 0.00 in0.0 mm 0.00 in0.0 mm 0.00 in0.0 mm
02:54 PM 46.8°F8.2°C 36.0°F2.2°C 66% 1.1 mph NNW1.8 kmh NNW 2.2 mph3.5 kmh 29.65 in1004.1 mb 0.00 in0.0 mm 0.00 in0.0 mm 0.00 in0.0 mm
02:49 PM 47.7°F8.7°C 35.7°F2.1°C 63% Calm Calm -- 29.65 in1004.1 mb 0.00 in0.0 mm 0.00 in0.0 mm 0.00 in0.0 mm
02:44 PM 48.8°F9.3°C 35.5°F1.9°C 60% Calm Calm -- 29.65 in1004.1 mb 0.00 in0.0 mm 0.00 in0.0 mm 0.00 in0.0 mm
02:39 PM 49.8°F9.9°C 35.2°F1.8°C 57% Calm Calm -- 29.64 in1003.7 mb 0.00 in0.0 mm 0.00 in0.0 mm 0.00 in0.0 mm
02:34 PM 50.7°F10.4°C 34.7°F1.5°C 54% 0.1 mph WSW0.2 kmh WSW 0.7 mph1.1 kmh 29.64 in1003.7 mb 0.00 in0.0 mm 0.00 in0.0 mm 0.00 in0.0 mm
02:29 PM 51.2°F10.7°C 34.7°F1.5°C 53% Calm Calm 0.6 mph1.0 kmh 29.63 in1003.4 mb 0.00 in0.0 mm 0.00 in0.0 mm 0.00 in0.0 mm
02:24 PM 51.5°F10.8°C 34.5°F1.4°C 52% 1.9 mph NNW3.1 kmh NNW 2.8 mph4.5 kmh 29.63 in1003.4 mb 0.00 in0.0 mm 0.00 in0.0 mm 0.00 in0.0 mm
02:19 PM 51.7°F10.9°C 34.6°F1.4°C 52% 0.4 mph WSW0.6 kmh WSW 1.7 mph2.7 kmh 29.63 in1003.4 mb 0.00 in0.0 mm 0.00 in0.0 mm 0.00 in0.0 mm
02:14 PM 51.7°F10.9°C 34.6°F1.4°C 52% 1.1 mph W1.8 kmh W 2.7 mph4.3 kmh 29.62 in1003.0 mb 0.00 in0.0 mm 0.00 in0.0 mm 0.00 in0.0 mm
02:09 PM 51.8°F11.0°C 34.3°F1.3°C 51% 1.2 mph WSW1.9 kmh WSW 2.2 mph3.5 kmh 29.62 in1003.0 mb 0.00 in0.0 mm 0.00 in0.0 mm 0.00 in0.0 mm
02:04 PM 52.0°F11.1°C 34.4°F1.3°C 51% 2.0 mph W3.2 kmh W 3.5 mph5.6 kmh 29.62 in1003.0 mb 0.00 in0.0 mm 0.00 in0.0 mm 0.00 in0.0 mm
01:59 PM 52.0°F11.1°C 33.9°F1.1°C 50% 1.8 mph WSW2.9 kmh WSW 3.0 mph4.8 kmh 29.62 in1003.0 mb 0.00 in0.0 mm 0.00 in0.0 mm 0.00 in0.0 mm
01:54 PM 52.2°F11.2°C 34.1°F1.2°C 50% 2.9 mph W4.7 kmh W 4.7 mph7.6 kmh 29.62 in1003.0 mb 0.00 in0.0 mm 0.00 in0.0 mm 0.00 in0.0 mm
01:49 PM 52.6°F11.4°C 34.0°F1.1°C 49% 3.7 mph W6.0 kmh W 5.7 mph9.2 kmh 29.62 in1003.0 mb 0.00 in0.0 mm 0.00 in0.0 mm 0.00 in0.0 mm
01:44 PM 52.9°F11.6°C 34.3°F1.3°C 49% 5.0 mph WSW8.0 kmh WSW 7.8 mph12.6 kmh 29.62 in1003.0 mb 0.00 in0.0 mm 0.00 in0.0 mm 0.00 in0.0 mm
01:39 PM 53.1°F11.7°C 34.5°F1.4°C 49% 4.6 mph SW7.4 kmh SW 6.7 mph10.8 kmh 29.61 in1002.7 mb 0.00 in0.0 mm 0.00 in0.0 mm 0.00 in0.0 mm
01:34 PM 53.2°F11.8°C 34.5°F1.4°C 49% 4.3 mph WSW6.9 kmh WSW 6.8 mph10.9 kmh 29.61 in1002.7 mb 0.00 in0.0 mm 0.00 in0.0 mm 0.00 in0.0 mm
01:29 PM 53.2°F11.8°C 34.0°F1.1°C 48% 4.3 mph WSW6.9 kmh WSW 6.5 mph10.5 kmh 29.61 in1002.7 mb 0.00 in0.0 mm 0.00 in0.0 mm 0.00 in0.0 mm
01:24 PM 53.4°F11.9°C 34.2°F1.2°C 48% 5.7 mph W9.2 kmh W 10.4 mph16.7 kmh 29.61 in1002.7 mb 0.00 in0.0 mm 0.00 in0.0 mm 0.00 in0.0 mm
01:19 PM 53.7°F12.1°C 34.5°F1.4°C 48% 5.1 mph WSW8.2 kmh WSW 9.3 mph15.0 kmh 29.61 in1002.7 mb 0.00 in0.0 mm 0.00 in0.0 mm 0.00 in0.0 mm
01:14 PM 54.0°F12.2°C 34.8°F1.6°C 48% 4.8 mph WNW7.7 kmh WNW 7.6 mph12.2 kmh 29.61 in1002.7 mb 0.00 in0.0 mm 0.00 in0.0 mm 0.00 in0.0 mm
01:09 PM 54.0°F12.2°C 34.8°F1.6°C 48% 4.3 mph W6.9 kmh W 7.8 mph12.6 kmh 29.61 in1002.7 mb 0.00 in0.0 mm 0.00 in0.0 mm 0.00 in0.0 mm
01:04 PM 54.2°F12.3°C 34.9°F1.6°C 48% 6.0 mph W9.7 kmh W 9.1 mph14.6 kmh 29.61 in1002.7 mb 0.00 in0.0 mm 0.00 in0.0 mm 0.00 in0.0 mm
12:59 PM 54.1°F12.3°C 35.4°F1.9°C 49% 5.8 mph WSW9.3 kmh WSW 9.7 mph15.6 kmh 29.60 in1002.4 mb 0.00 in0.0 mm 0.00 in0.0 mm 0.00 in0.0 mm
12:54 PM 53.5°F11.9°C 34.8°F1.6°C 49% 6.3 mph SW10.1 kmh SW 10.0 mph16.1 kmh 29.61 in1002.7 mb 0.00 in0.0 mm 0.00 in0.0 mm 0.00 in0.0 mm
12:49 PM 53.3°F11.8°C 35.1°F1.7°C 50% 8.4 mph SW13.5 kmh SW 14.7 mph23.7 kmh 29.61 in1002.7 mb 0.00 in0.0 mm 0.00 in0.0 mm 0.00 in0.0 mm
12:44 PM 53.1°F11.7°C 35.0°F1.7°C 50% 8.0 mph SW12.9 kmh SW 13.2 mph21.2 kmh 29.61 in1002.7 mb 0.00 in0.0 mm 0.00 in0.0 mm 0.00 in0.0 mm
12:39 PM 53.1°F11.7°C 35.5°F1.9°C 51% 6.3 mph WSW10.1 kmh WSW 10.4 mph16.7 kmh 29.61 in1002.7 mb 0.00 in0.0 mm 0.00 in0.0 mm 0.00 in0.0 mm
12:34 PM 53.4°F11.9°C 35.2°F1.8°C 50% 4.9 mph WNW7.9 kmh WNW 7.8 mph12.6 kmh 29.61 in1002.7 mb 0.00 in0.0 mm 0.00 in0.0 mm 0.00 in0.0 mm
12:29 PM 53.7°F12.1°C 35.5°F1.9°C 50% 8.2 mph W13.2 kmh W 12.5 mph20.1 kmh 29.61 in1002.7 mb 0.00 in0.0 mm 0.00 in0.0 mm 0.00 in0.0 mm
12:24 PM 53.9°F12.2°C 35.7°F2.1°C 50% 5.3 mph W8.5 kmh W 7.6 mph12.2 kmh 29.61 in1002.7 mb 0.00 in0.0 mm 0.00 in0.0 mm 0.00 in0.0 mm
12:19 PM 54.0°F12.2°C 35.8°F2.1°C 50% 6.2 mph WSW10.0 kmh WSW 8.9 mph14.3 kmh 29.61 in1002.7 mb 0.00 in0.0 mm 0.00 in0.0 mm 0.00 in0.0 mm
12:14 PM 54.2°F12.3°C 35.5°F1.9°C 49% 5.4 mph SW8.7 kmh SW 9.1 mph14.6 kmh 29.62 in1003.0 mb 0.00 in0.0 mm 0.00 in0.0 mm 0.00 in0.0 mm
12:09 PM 54.6°F12.6°C 35.3°F1.8°C 48% 4.0 mph SSW6.4 kmh SSW 6.8 mph10.9 kmh 29.61 in1002.7 mb 0.00 in0.0 mm 0.00 in0.0 mm 0.00 in0.0 mm
12:04 PM 54.6°F12.6°C 35.8°F2.1°C 49% 4.9 mph WSW7.9 kmh WSW 8.1 mph13.0 kmh 29.61 in1002.7 mb 0.00 in0.0 mm 0.00 in0.0 mm 0.00 in0.0 mm
11:59 AM 54.0°F12.2°C 35.3°F1.8°C 49% 2.4 mph WSW3.9 kmh WSW 4.4 mph7.1 kmh 29.61 in1002.7 mb 0.00 in0.0 mm 0.00 in0.0 mm 0.00 in0.0 mm
11:54 AM 53.9°F12.2°C 35.2°F1.8°C 49% 5.0 mph W8.0 kmh W 7.3 mph11.7 kmh 29.61 in1002.7 mb 0.00 in0.0 mm 0.00 in0.0 mm 0.00 in0.0 mm
11:49 AM 53.9°F12.2°C 35.7°F2.1°C 50% 5.1 mph WSW8.2 kmh WSW 7.7 mph12.4 kmh 29.61 in1002.7 mb 0.00 in0.0 mm 0.00 in0.0 mm 0.00 in0.0 mm
11:44 AM 54.0°F12.2°C 35.8°F2.1°C 50% 5.9 mph WSW9.5 kmh WSW 9.4 mph15.1 kmh 29.61 in1002.7 mb 0.00 in0.0 mm 0.00 in0.0 mm 0.00 in0.0 mm
11:39 AM 54.2°F12.3°C 36.5°F2.5°C 51% 4.2 mph SW6.8 kmh SW 7.3 mph11.7 kmh 29.61 in1002.7 mb 0.00 in0.0 mm 0.00 in0.0 mm 0.00 in0.0 mm
11:34 AM 53.9°F12.2°C 36.2°F2.3°C 51% 3.3 mph SW5.3 kmh SW 5.5 mph8.9 kmh 29.62 in1003.0 mb 0.00 in0.0 mm 0.00 in0.0 mm 0.00 in0.0 mm
11:29 AM 53.5°F11.9°C 36.3°F2.4°C 52% 3.9 mph W6.3 kmh W 6.9 mph11.1 kmh 29.62 in1003.0 mb 0.00 in0.0 mm 0.00 in0.0 mm 0.00 in0.0 mm
11:24 AM 53.1°F11.7°C 36.4°F2.4°C 53% 4.3 mph WSW6.9 kmh WSW 6.8 mph10.9 kmh 29.62 in1003.0 mb 0.00 in0.0 mm 0.00 in0.0 mm 0.00 in0.0 mm
11:19 AM 53.0°F11.7°C 36.3°F2.4°C 53% 5.8 mph WSW9.3 kmh WSW 8.6 mph13.8 kmh 29.62 in1003.0 mb 0.00 in0.0 mm 0.00 in0.0 mm 0.00 in0.0 mm
11:14 AM 52.8°F11.6°C 36.6°F2.6°C 54% 6.0 mph SW9.7 kmh SW 8.7 mph14.0 kmh 29.62 in1003.0 mb 0.00 in0.0 mm 0.00 in0.0 mm 0.00 in0.0 mm
11:09 AM 52.8°F11.6°C 36.6°F2.6°C 54% 4.7 mph WSW7.6 kmh WSW 7.9 mph12.7 kmh 29.62 in1003.0 mb 0.00 in0.0 mm 0.00 in0.0 mm 0.00 in0.0 mm
11:04 AM 52.7°F11.5°C 36.5°F2.5°C 54% 4.0 mph WSW6.4 kmh WSW 6.5 mph10.5 kmh 29.63 in1003.4 mb 0.00 in0.0 mm 0.00 in0.0 mm 0.00 in0.0 mm
10:59 AM 52.6°F11.4°C 36.9°F2.7°C 55% 5.2 mph WSW8.4 kmh WSW 8.0 mph12.9 kmh 29.63 in1003.4 mb 0.00 in0.0 mm 0.00 in0.0 mm 0.00 in0.0 mm
10:54 AM 52.5°F11.4°C 37.3°F2.9°C 56% 3.7 mph WNW6.0 kmh WNW 6.2 mph10.0 kmh 29.63 in1003.4 mb 0.00 in0.0 mm 0.00 in0.0 mm 0.00 in0.0 mm
10:49 AM 52.2°F11.2°C 37.4°F3.0°C 57% 3.3 mph WSW5.3 kmh WSW 5.7 mph9.2 kmh 29.64 in1003.7 mb 0.00 in0.0 mm 0.00 in0.0 mm 0.00 in0.0 mm
10:44 AM 51.7°F10.9°C 37.4°F3.0°C 58% 4.2 mph WSW6.8 kmh WSW 6.8 mph10.9 kmh 29.64 in1003.7 mb 0.00 in0.0 mm 0.00 in0.0 mm 0.00 in0.0 mm
10:39 AM 51.4°F10.8°C 37.1°F2.8°C 58% 3.7 mph WSW6.0 kmh WSW 6.5 mph10.5 kmh 29.64 in1003.7 mb 0.00 in0.0 mm 0.00 in0.0 mm 0.00 in0.0 mm
10:34 AM 51.2°F10.7°C 37.4°F3.0°C 59% 5.4 mph W8.7 kmh W 7.9 mph12.7 kmh 29.63 in1003.4 mb 0.00 in0.0 mm 0.00 in0.0 mm 0.00 in0.0 mm
10:29 AM 51.1°F10.6°C 37.3°F2.9°C 59% 4.9 mph WSW7.9 kmh WSW 7.6 mph12.2 kmh 29.63 in1003.4 mb 0.00 in0.0 mm 0.00 in0.0 mm 0.00 in0.0 mm
10:24 AM 51.0°F10.6°C 37.6°F3.1°C 60% 3.9 mph WSW6.3 kmh WSW 7.0 mph11.3 kmh 29.63 in1003.4 mb 0.00 in0.0 mm 0.00 in0.0 mm 0.00 in0.0 mm
10:19 AM 50.8°F10.4°C 37.4°F3.0°C 60% 4.9 mph WSW7.9 kmh WSW 8.2 mph13.2 kmh 29.64 in1003.7 mb 0.00 in0.0 mm 0.00 in0.0 mm 0.00 in0.0 mm
10:14 AM 50.7°F10.4°C 37.7°F3.2°C 61% 3.7 mph W6.0 kmh W 6.6 mph10.6 kmh 29.63 in1003.4 mb 0.00 in0.0 mm 0.00 in0.0 mm 0.00 in0.0 mm
10:09 AM 50.7°F10.4°C 37.7°F3.2°C 61% 5.6 mph WSW9.0 kmh WSW 8.3 mph13.4 kmh 29.63 in1003.4 mb 0.00 in0.0 mm 0.00 in0.0 mm 0.00 in0.0 mm
10:04 AM 50.8°F10.4°C 37.8°F3.2°C 61% 4.4 mph W7.1 kmh W 6.5 mph10.5 kmh 29.64 in1003.7 mb 0.00 in0.0 mm 0.00 in0.0 mm 0.00 in0.0 mm
09:59 AM 50.6°F10.3°C 38.1°F3.4°C 62% 3.1 mph W5.0 kmh W 5.7 mph9.2 kmh 29.64 in1003.7 mb 0.00 in0.0 mm 0.00 in0.0 mm 0.00 in0.0 mm
09:54 AM 50.2°F10.1°C 38.1°F3.4°C 63% 1.8 mph NW2.9 kmh NW 3.2 mph5.1 kmh 29.64 in1003.7 mb 0.00 in0.0 mm 0.00 in0.0 mm 0.00 in0.0 mm
09:49 AM 49.8°F9.9°C 38.1°F3.4°C 64% 4.7 mph WNW7.6 kmh WNW 8.0 mph12.9 kmh 29.63 in1003.4 mb 0.00 in0.0 mm 0.00 in0.0 mm 0.00 in0.0 mm
09:44 AM 49.1°F9.5°C 37.8°F3.2°C 65% 1.8 mph NW2.9 kmh NW 3.5 mph5.6 kmh 29.64 in1003.7 mb 0.00 in0.0 mm 0.00 in0.0 mm 0.00 in0.0 mm
09:39 AM 48.6°F9.2°C 37.8°F3.2°C 66% 3.4 mph W5.5 kmh W 7.3 mph11.7 kmh 29.64 in1003.7 mb 0.00 in0.0 mm 0.00 in0.0 mm 0.00 in0.0 mm
09:34 AM 48.0°F8.9°C 37.6°F3.1°C 67% 3.5 mph W5.6 kmh W 5.8 mph9.3 kmh 29.63 in1003.4 mb 0.00 in0.0 mm 0.00 in0.0 mm 0.00 in0.0 mm
09:29 AM 47.5°F8.6°C 37.5°F3.1°C 68% 3.7 mph W6.0 kmh W 6.3 mph10.1 kmh 29.63 in1003.4 mb 0.00 in0.0 mm 0.00 in0.0 mm 0.00 in0.0 mm
09:24 AM 47.2°F8.4°C 37.6°F3.1°C 69% 5.2 mph W8.4 kmh W 8.6 mph13.8 kmh 29.63 in1003.4 mb 0.00 in0.0 mm 0.00 in0.0 mm 0.00 in0.0 mm
09:19 AM 46.7°F8.2°C 37.4°F3.0°C 70% 3.4 mph WSW5.5 kmh WSW 5.5 mph8.9 kmh 29.63 in1003.4 mb 0.00 in0.0 mm 0.00 in0.0 mm 0.00 in0.0 mm
09:14 AM 46.1°F7.8°C 37.6°F3.1°C 72% 3.3 mph WSW5.3 kmh WSW 6.0 mph9.7 kmh 29.63 in1003.4 mb 0.00 in0.0 mm 0.00 in0.0 mm 0.00 in0.0 mm
09:09 AM 45.6°F7.6°C 37.1°F2.8°C 72% 3.3 mph WSW5.3 kmh WSW 6.0 mph9.7 kmh 29.63 in1003.4 mb 0.00 in0.0 mm 0.00 in0.0 mm 0.00 in0.0 mm
09:04 AM 45.3°F7.4°C 37.2°F2.9°C 73% 3.7 mph W6.0 kmh W 6.4 mph10.3 kmh 29.63 in1003.4 mb 0.00 in0.0 mm 0.00 in0.0 mm 0.00 in0.0 mm
08:59 AM 45.1°F7.3°C 37.0°F2.8°C 73% 3.4 mph WSW5.5 kmh WSW 5.4 mph8.7 kmh 29.63 in1003.4 mb 0.00 in0.0 mm 0.00 in0.0 mm 0.00 in0.0 mm
08:54 AM 44.8°F7.1°C 37.0°F2.8°C 74% 3.3 mph W5.3 kmh W 5.5 mph8.9 kmh 29.63 in1003.4 mb 0.00 in0.0 mm 0.00 in0.0 mm 0.00 in0.0 mm
08:49 AM 44.6°F7.0°C 37.2°F2.9°C 75% 5.0 mph W8.0 kmh W 8.7 mph14.0 kmh 29.63 in1003.4 mb 0.00 in0.0 mm 0.00 in0.0 mm 0.00 in0.0 mm
08:44 AM 44.3°F6.8°C 36.9°F2.7°C 75% 3.5 mph W5.6 kmh W 5.7 mph9.2 kmh 29.62 in1003.0 mb 0.00 in0.0 mm 0.00 in0.0 mm 0.00 in0.0 mm
08:39 AM 44.0°F6.7°C 36.9°F2.7°C 76% 4.1 mph W6.6 kmh W 7.4 mph11.9 kmh 29.62 in1003.0 mb 0.00 in0.0 mm 0.00 in0.0 mm 0.00 in0.0 mm
08:34 AM 43.7°F6.5°C 37.0°F2.8°C 77% 4.7 mph WSW7.6 kmh WSW 7.8 mph12.6 kmh 29.62 in1003.0 mb 0.00 in0.0 mm 0.00 in0.0 mm 0.00 in0.0 mm
08:29 AM 43.4°F6.3°C 37.0°F2.8°C 78% 5.5 mph WSW8.9 kmh WSW 8.4 mph13.5 kmh 29.62 in1003.0 mb 0.00 in0.0 mm 0.00 in0.0 mm 0.00 in0.0 mm
08:24 AM 43.0°F6.1°C 36.9°F2.7°C 79% 4.1 mph WSW6.6 kmh WSW 5.6 mph9.0 kmh 29.62 in1003.0 mb 0.00 in0.0 mm 0.00 in0.0 mm 0.00 in0.0 mm
08:19 AM 42.6°F5.9°C 36.9°F2.7°C 80% 4.3 mph WSW6.9 kmh WSW 6.2 mph10.0 kmh 29.61 in1002.7 mb 0.00 in0.0 mm 0.00 in0.0 mm 0.00 in0.0 mm
08:14 AM 42.1°F5.6°C 36.4°F2.4°C 80% 3.7 mph WSW6.0 kmh WSW 5.9 mph9.5 kmh 29.61 in1002.7 mb 0.00 in0.0 mm 0.00 in0.0 mm 0.00 in0.0 mm
08:09 AM 41.7°F5.4°C 36.3°F2.4°C 81% 4.1 mph WSW6.6 kmh WSW 6.1 mph9.8 kmh 29.61 in1002.7 mb 0.00 in0.0 mm 0.00 in0.0 mm 0.00 in0.0 mm
08:04 AM 41.3°F5.2°C 36.2°F2.3°C 82% 3.2 mph WSW5.1 kmh WSW 5.3 mph8.5 kmh 29.61 in1002.7 mb 0.00 in0.0 mm 0.00 in0.0 mm 0.00 in0.0 mm
07:59 AM 40.9°F4.9°C 36.1°F2.3°C 83% 3.6 mph WSW5.8 kmh WSW 6.6 mph10.6 kmh 29.60 in1002.4 mb 0.00 in0.0 mm 0.00 in0.0 mm 0.00 in0.0 mm
07:54 AM 40.5°F4.7°C 36.1°F2.3°C 84% 2.8 mph WSW4.5 kmh WSW 4.4 mph7.1 kmh 29.60 in1002.4 mb 0.00 in0.0 mm 0.00 in0.0 mm 0.00 in0.0 mm
07:49 AM 40.1°F4.5°C 36.0°F2.2°C 85% 2.8 mph WSW4.5 kmh WSW 4.6 mph7.4 kmh 29.60 in1002.4 mb 0.00 in0.0 mm 0.00 in0.0 mm 0.00 in0.0 mm
07:44 AM 39.5°F4.2°C 35.7°F2.1°C 86% 4.7 mph WSW7.6 kmh WSW 7.5 mph12.1 kmh 29.60 in1002.4 mb 0.00 in0.0 mm 0.00 in0.0 mm 0.00 in0.0 mm
07:39 AM 39.0°F3.9°C 35.5°F1.9°C 87% 3.5 mph WSW5.6 kmh WSW 6.4 mph10.3 kmh 29.59 in1002.0 mb 0.00 in0.0 mm 0.00 in0.0 mm 0.00 in0.0 mm
07:34 AM 38.4°F3.6°C 35.2°F1.8°C 88% 2.7 mph WNW4.3 kmh WNW 4.6 mph7.4 kmh 29.59 in1002.0 mb 0.00 in0.0 mm 0.00 in0.0 mm 0.00 in0.0 mm
07:29 AM 37.6°F3.1°C 34.9°F1.6°C 90% 2.7 mph WSW4.3 kmh WSW 5.0 mph8.0 kmh 29.59 in1002.0 mb 0.00 in0.0 mm 0.00 in0.0 mm 0.00 in0.0 mm
07:24 AM 37.0°F2.8°C 34.6°F1.4°C 91% 1.9 mph W3.1 kmh W 3.6 mph5.8 kmh 29.59 in1002.0 mb 0.00 in0.0 mm 0.00 in0.0 mm 0.00 in0.0 mm
07:19 AM 36.6°F2.6°C 34.2°F1.2°C 91% 1.3 mph WSW2.1 kmh WSW 3.3 mph5.3 kmh 29.58 in1001.7 mb 0.00 in0.0 mm 0.00 in0.0 mm 0.00 in0.0 mm
07:14 AM 36.4°F2.4°C 34.3°F1.3°C 92% 2.7 mph WSW4.3 kmh WSW 4.8 mph7.7 kmh 29.58 in1001.7 mb 0.00 in0.0 mm 0.00 in0.0 mm 0.00 in0.0 mm
07:09 AM 35.9°F2.2°C 34.1°F1.2°C 93% 3.3 mph WNW5.3 kmh WNW 6.3 mph10.1 kmh 29.58 in1001.7 mb 0.00 in0.0 mm 0.00 in0.0 mm 0.00 in0.0 mm
07:04 AM 35.1°F1.7°C 33.8°F1.0°C 95% 3.9 mph WNW6.3 kmh WNW 6.0 mph9.7 kmh 29.57 in1001.4 mb 0.00 in0.0 mm 0.00 in0.0 mm 0.00 in0.0 mm
06:59 AM 34.1°F1.2°C 33.1°F0.6°C 96% 3.3 mph WSW5.3 kmh WSW 5.1 mph8.2 kmh 29.57 in1001.4 mb 0.00 in0.0 mm 0.00 in0.0 mm 0.00 in0.0 mm
06:54 AM 33.4°F0.8°C 32.9°F0.5°C 98% 2.7 mph WSW4.3 kmh WSW 5.2 mph8.4 kmh 29.57 in1001.4 mb 0.00 in0.0 mm 0.00 in0.0 mm 0.00 in0.0 mm
06:49 AM 32.8°F0.4°C 32.3°F0.2°C 98% 1.0 mph WSW1.6 kmh WSW 3.1 mph5.0 kmh 29.56 in1001.0 mb 0.00 in0.0 mm 0.00 in0.0 mm 0.00 in0.0 mm
06:44 AM 31.6°F-0.2°C 31.4°F-0.3°C 99% 2.3 mph WSW3.7 kmh WSW 3.8 mph6.1 kmh 29.56 in1001.0 mb 0.00 in0.0 mm 0.00 in0.0 mm 0.00 in0.0 mm
06:39 AM 30.4°F-0.9°C 30.2°F-1.0°C 99% 1.1 mph WSW1.8 kmh WSW 3.3 mph5.3 kmh 29.56 in1001.0 mb 0.00 in0.0 mm 0.00 in0.0 mm 0.00 in0.0 mm
06:34 AM 30.3°F-0.9°C 30.1°F-1.1°C 99% 0.4 mph NNW0.6 kmh NNW 2.1 mph3.4 kmh 29.56 in1001.0 mb 0.00 in0.0 mm 0.00 in0.0 mm 0.00 in0.0 mm
06:29 AM 30.7°F-0.7°C 30.5°F-0.8°C 99% 0.5 mph W0.8 kmh W 1.2 mph1.9 kmh 29.55 in1000.7 mb 0.00 in0.0 mm 0.00 in0.0 mm 0.00 in0.0 mm
06:24 AM 30.8°F-0.7°C 30.6°F-0.8°C 99% 0.3 mph W0.5 kmh W 1.8 mph2.9 kmh 29.55 in1000.7 mb 0.00 in0.0 mm 0.00 in0.0 mm 0.00 in0.0 mm
06:19 AM 30.6°F-0.8°C 30.6°F-0.8°C 100% 1.1 mph WSW1.8 kmh WSW 2.6 mph4.2 kmh 29.55 in1000.7 mb 0.00 in0.0 mm 0.00 in0.0 mm 0.00 in0.0 mm
06:14 AM 29.6°F-1.3°C 29.6°F-1.3°C 100% 0.8 mph WNW1.3 kmh WNW 1.7 mph2.7 kmh 29.54 in1000.3 mb 0.00 in0.0 mm 0.00 in0.0 mm 0.00 in0.0 mm
06:09 AM 27.7°F-2.4°C 27.5°F-2.5°C 99% 0.9 mph WNW1.4 kmh WNW 1.6 mph2.6 kmh 29.54 in1000.3 mb 0.00 in0.0 mm 0.00 in0.0 mm 0.00 in0.0 mm
06:04 AM 26.0°F-3.3°C 25.5°F-3.6°C 98% 0.6 mph WNW1.0 kmh WNW 1.4 mph2.3 kmh 29.53 in1000.0 mb 0.00 in0.0 mm 0.00 in0.0 mm 0.00 in0.0 mm
05:59 AM 25.5°F-3.6°C 25.0°F-3.9°C 98% 0.8 mph NNW1.3 kmh NNW 1.6 mph2.6 kmh 29.53 in1000.0 mb 0.00 in0.0 mm 0.00 in0.0 mm 0.00 in0.0 mm
05:54 AM 25.5°F-3.6°C 25.0°F-3.9°C 98% 0.8 mph NNW1.3 kmh NNW 1.7 mph2.7 kmh 29.53 in1000.0 mb 0.00 in0.0 mm 0.00 in0.0 mm 0.00 in0.0 mm
05:49 AM 25.8°F-3.4°C 25.3°F-3.7°C 98% 0.9 mph NNW1.4 kmh NNW 1.6 mph2.6 kmh 29.53 in1000.0 mb 0.00 in0.0 mm 0.00 in0.0 mm 0.00 in0.0 mm
05:44 AM 26.0°F-3.3°C 25.5°F-3.6°C 98% Calm Calm -- 29.53 in1000.0 mb 0.00 in0.0 mm 0.00 in0.0 mm 0.00 in0.0 mm
05:39 AM 26.3°F-3.2°C 25.8°F-3.4°C 98% Calm Calm -- 29.53 in1000.0 mb 0.00 in0.0 mm 0.00 in0.0 mm 0.00 in0.0 mm
05:34 AM 26.5°F-3.1°C 26.0°F-3.3°C 98% Calm Calm -- 29.53 in1000.0 mb 0.00 in0.0 mm 0.00 in0.0 mm 0.00 in0.0 mm
05:29 AM 26.2°F-3.2°C 25.7°F-3.5°C 98% 1.0 mph WSW1.6 kmh WSW 1.8 mph2.9 kmh 29.52 in999.7 mb 0.00 in0.0 mm 0.00 in0.0 mm 0.00 in0.0 mm
05:24 AM 26.1°F-3.3°C 25.6°F-3.6°C 98% Calm Calm -- 29.52 in999.7 mb 0.00 in0.0 mm 0.00 in0.0 mm 0.00 in0.0 mm
05:19 AM 26.1°F-3.3°C 25.6°F-3.6°C 98% Calm Calm -- 29.51 in999.3 mb 0.00 in0.0 mm 0.00 in0.0 mm 0.00 in0.0 mm
05:14 AM 26.1°F-3.3°C 25.6°F-3.6°C 98% Calm Calm -- 29.51 in999.3 mb 0.00 in0.0 mm 0.00 in0.0 mm 0.00 in0.0 mm
05:09 AM 26.1°F-3.3°C 25.4°F-3.7°C 97% 1.0 mph NNW1.6 kmh NNW 1.8 mph2.9 kmh 29.51 in999.3 mb 0.00 in0.0 mm 0.00 in0.0 mm 0.00 in0.0 mm
05:04 AM 26.5°F-3.1°C 25.8°F-3.4°C 97% 1.6 mph NNW2.6 kmh NNW 2.3 mph3.7 kmh 29.51 in999.3 mb 0.00 in0.0 mm 0.00 in0.0 mm 0.00 in0.0 mm
04:59 AM 27.5°F-2.5°C 27.0°F-2.8°C 98% 0.6 mph N1.0 kmh N 1.4 mph2.3 kmh 29.50 in999.0 mb 0.00 in0.0 mm 0.00 in0.0 mm 0.00 in0.0 mm
04:54 AM 29.6°F-1.3°C 29.1°F-1.6°C 98% 3.0 mph NE4.8 kmh NE 4.5 mph7.2 kmh 29.50 in999.0 mb 0.00 in0.0 mm 0.00 in0.0 mm 0.00 in0.0 mm
04:49 AM 31.5°F-0.3°C 31.3°F-0.4°C 99% 1.3 mph NNW2.1 kmh NNW 2.2 mph3.5 kmh 29.50 in999.0 mb 0.00 in0.0 mm 0.00 in0.0 mm 0.00 in0.0 mm
04:44 AM 30.7°F-0.7°C 30.5°F-0.8°C 99% 1.3 mph SW2.1 kmh SW 3.3 mph5.3 kmh 29.49 in998.6 mb 0.00 in0.0 mm 0.00 in0.0 mm 0.00 in0.0 mm
04:39 AM 28.9°F-1.7°C 28.7°F-1.8°C 99% 1.9 mph WSW3.1 kmh WSW 4.2 mph6.8 kmh 29.49 in998.6 mb 0.00 in0.0 mm 0.00 in0.0 mm 0.00 in0.0 mm
04:34 AM 28.4°F-2.0°C 28.2°F-2.1°C 99% Calm Calm -- 29.49 in998.6 mb 0.00 in0.0 mm 0.00 in0.0 mm 0.00 in0.0 mm
04:29 AM 28.8°F-1.8°C 28.6°F-1.9°C 99% Calm Calm 0.3 mph0.5 kmh 29.49 in998.6 mb 0.00 in0.0 mm 0.00 in0.0 mm 0.00 in0.0 mm
04:24 AM 27.9°F-2.3°C 27.4°F-2.6°C 98% 0.3 mph WSW0.5 kmh WSW 0.5 mph0.8 kmh 29.49 in998.6 mb 0.00 in0.0 mm 0.00 in0.0 mm 0.00 in0.0 mm
04:19 AM 27.0°F-2.8°C 26.5°F-3.1°C 98% Calm Calm -- 29.49 in998.6 mb 0.00 in0.0 mm 0.00 in0.0 mm 0.00 in0.0 mm
04:14 AM 26.9°F-2.8°C 26.4°F-3.1°C 98% Calm Calm -- 29.49 in998.6 mb 0.00 in0.0 mm 0.00 in0.0 mm 0.00 in0.0 mm
04:09 AM 26.6°F-3.0°C 26.1°F-3.3°C 98% Calm Calm -- 29.49 in998.6 mb 0.00 in0.0 mm 0.00 in0.0 mm 0.00 in0.0 mm
04:04 AM 26.3°F-3.2°C 25.8°F-3.4°C 98% Calm Calm -- 29.48 in998.3 mb 0.00 in0.0 mm 0.00 in0.0 mm 0.00 in0.0 mm
03:59 AM 26.4°F-3.1°C 25.9°F-3.4°C 98% Calm Calm -- 29.49 in998.6 mb 0.00 in0.0 mm 0.00 in0.0 mm 0.00 in0.0 mm
03:54 AM 26.6°F-3.0°C 26.1°F-3.3°C 98% Calm Calm -- 29.48 in998.3 mb 0.00 in0.0 mm 0.00 in0.0 mm 0.00 in0.0 mm
03:49 AM 26.6°F-3.0°C 26.1°F-3.3°C 98% Calm Calm -- 29.48 in998.3 mb 0.00 in0.0 mm 0.00 in0.0 mm 0.00 in0.0 mm
03:44 AM 26.6°F-3.0°C 26.1°F-3.3°C 98% Calm Calm -- 29.48 in998.3 mb 0.00 in0.0 mm 0.00 in0.0 mm 0.00 in0.0 mm
03:39 AM 26.6°F-3.0°C 26.1°F-3.3°C 98% Calm Calm -- 29.48 in998.3 mb 0.00 in0.0 mm 0.00 in0.0 mm 0.00 in0.0 mm
03:34 AM 26.5°F-3.1°C 25.8°F-3.4°C 97% Calm Calm -- 29.47 in998.0 mb 0.00 in0.0 mm 0.00 in0.0 mm 0.00 in0.0 mm
03:29 AM 26.5°F-3.1°C 25.8°F-3.4°C 97% Calm Calm -- 29.47 in998.0 mb 0.00 in0.0 mm 0.00 in0.0 mm 0.00 in0.0 mm
03:24 AM 26.6°F-3.0°C 25.9°F-3.4°C 97% Calm Calm -- 29.47 in998.0 mb 0.00 in0.0 mm 0.00 in0.0 mm 0.00 in0.0 mm
03:19 AM 26.6°F-3.0°C 25.9°F-3.4°C 97% Calm Calm -- 29.47 in998.0 mb 0.00 in0.0 mm 0.00 in0.0 mm 0.00 in0.0 mm
03:14 AM 26.6°F-3.0°C 25.9°F-3.4°C 97% Calm Calm -- 29.47 in998.0 mb 0.00 in0.0 mm 0.00 in0.0 mm 0.00 in0.0 mm
03:09 AM 26.8°F-2.9°C 26.1°F-3.3°C 97% Calm Calm -- 29.47 in998.0 mb 0.00 in0.0 mm 0.00 in0.0 mm 0.00 in0.0 mm
03:04 AM 26.8°F-2.9°C 26.1°F-3.3°C 97% Calm Calm -- 29.46 in997.6 mb 0.00 in0.0 mm 0.00 in0.0 mm 0.00 in0.0 mm
02:59 AM 27.1°F-2.7°C 26.4°F-3.1°C 97% Calm Calm -- 29.47 in998.0 mb 0.00 in0.0 mm 0.00 in0.0 mm 0.00 in0.0 mm
02:54 AM 27.3°F-2.6°C 26.3°F-3.2°C 96% Calm Calm -- 29.47 in998.0 mb 0.00 in0.0 mm 0.00 in0.0 mm 0.00 in0.0 mm
02:49 AM 27.3°F-2.6°C 26.3°F-3.2°C 96% Calm Calm -- 29.46 in997.6 mb 0.00 in0.0 mm 0.00 in0.0 mm 0.00 in0.0 mm
02:44 AM 27.3°F-2.6°C 26.3°F-3.2°C 96% Calm Calm -- 29.47 in998.0 mb 0.00 in0.0 mm 0.00 in0.0 mm 0.00 in0.0 mm
02:39 AM 27.3°F-2.6°C 26.3°F-3.2°C 96% Calm Calm -- 29.47 in998.0 mb 0.00 in0.0 mm 0.00 in0.0 mm 0.00 in0.0 mm
02:34 AM 27.3°F-2.6°C 26.1°F-3.3°C 95% Calm Calm -- 29.47 in998.0 mb 0.00 in0.0 mm 0.00 in0.0 mm 0.00 in0.0 mm
02:29 AM 27.3°F-2.6°C 26.1°F-3.3°C 95% Calm Calm -- 29.46 in997.6 mb 0.00 in0.0 mm 0.00 in0.0 mm 0.00 in0.0 mm
02:24 AM 27.7°F-2.4°C 26.5°F-3.1°C 95% 0.4 mph NNW0.6 kmh NNW 1.1 mph1.8 kmh 29.46 in997.6 mb 0.00 in0.0 mm 0.00 in0.0 mm 0.00 in0.0 mm
02:19 AM 28.5°F-1.9°C 27.3°F-2.6°C 95% 0.7 mph NNW1.1 kmh NNW 1.6 mph2.6 kmh 29.46 in997.6 mb 0.00 in0.0 mm 0.00 in0.0 mm 0.00 in0.0 mm
02:14 AM 29.1°F-1.6°C 27.6°F-2.4°C 94% 0.9 mph NNW1.4 kmh NNW 1.7 mph2.7 kmh 29.46 in997.6 mb 0.00 in0.0 mm 0.00 in0.0 mm 0.00 in0.0 mm
02:09 AM 29.7°F-1.3°C 28.2°F-2.1°C 94% 0.4 mph WSW0.6 kmh WSW 1.0 mph1.6 kmh 29.46 in997.6 mb 0.00 in0.0 mm 0.00 in0.0 mm 0.00 in0.0 mm
02:04 AM 30.4°F-0.9°C 28.9°F-1.7°C 94% Calm Calm -- 29.46 in997.6 mb 0.00 in0.0 mm 0.00 in0.0 mm 0.00 in0.0 mm
01:59 AM 30.9°F-0.6°C 29.6°F-1.3°C 95% 0.2 mph WSW0.3 kmh WSW 1.2 mph1.9 kmh 29.46 in997.6 mb 0.00 in0.0 mm 0.00 in0.0 mm 0.00 in0.0 mm
01:54 AM 31.3°F-0.4°C 29.8°F-1.2°C 94% Calm Calm -- 29.46 in997.6 mb 0.00 in0.0 mm 0.00 in0.0 mm 0.00 in0.0 mm
01:49 AM 31.7°F-0.2°C 30.2°F-1.0°C 94% 0.2 mph SSW0.3 kmh SSW 0.7 mph1.1 kmh 29.45 in997.3 mb 0.00 in0.0 mm 0.00 in0.0 mm 0.00 in0.0 mm
01:44 AM 31.8°F-0.1°C 30.5°F-0.8°C 95% 0.2 mph SSW0.3 kmh SSW 0.9 mph1.4 kmh 29.46 in997.6 mb 0.00 in0.0 mm 0.00 in0.0 mm 0.00 in0.0 mm
01:39 AM 31.6°F-0.2°C 30.1°F-1.1°C 94% 1.2 mph SSW1.9 kmh SSW 2.2 mph3.5 kmh 29.46 in997.6 mb 0.00 in0.0 mm 0.00 in0.0 mm 0.00 in0.0 mm
01:34 AM 30.9°F-0.6°C 29.4°F-1.4°C 94% 0.1 mph WSW0.2 kmh WSW 0.4 mph0.6 kmh 29.46 in997.6 mb 0.00 in0.0 mm 0.00 in0.0 mm 0.00 in0.0 mm
01:29 AM 30.7°F-0.7°C 28.9°F-1.7°C 93% 0.2 mph WSW0.3 kmh WSW 0.9 mph1.4 kmh 29.46 in997.6 mb 0.00 in0.0 mm 0.00 in0.0 mm 0.00 in0.0 mm
01:24 AM 31.2°F-0.4°C 29.4°F-1.4°C 93% Calm Calm -- 29.46 in997.6 mb 0.00 in0.0 mm 0.00 in0.0 mm 0.00 in0.0 mm
01:19 AM 31.5°F-0.3°C 29.7°F-1.3°C 93% Calm Calm 0.3 mph0.5 kmh 29.46 in997.6 mb 0.00 in0.0 mm 0.00 in0.0 mm 0.00 in0.0 mm
01:14 AM 31.6°F-0.2°C 29.5°F-1.4°C 92% 1.0 mph WSW1.6 kmh WSW 1.8 mph2.9 kmh 29.46 in997.6 mb 0.00 in0.0 mm 0.00 in0.0 mm 0.00 in0.0 mm
01:09 AM 31.8°F-0.1°C 29.2°F-1.6°C 90% 0.2 mph WSW0.3 kmh WSW 0.7 mph1.1 kmh 29.46 in997.6 mb 0.00 in0.0 mm 0.00 in0.0 mm 0.00 in0.0 mm
01:04 AM 32.6°F0.3°C 29.4°F-1.4°C 88% 1.4 mph WSW2.3 kmh WSW 1.9 mph3.1 kmh 29.46 in997.6 mb 0.00 in0.0 mm 0.00 in0.0 mm 0.00 in0.0 mm
12:59 AM 33.7°F0.9°C 30.5°F-0.8°C 88% Calm Calm -- 29.46 in997.6 mb 0.00 in0.0 mm 0.00 in0.0 mm 0.00 in0.0 mm
12:53 AM 34.8°F1.6°C 31.6°F-0.2°C 88% 1.0 mph WSW1.6 kmh WSW 1.7 mph2.7 kmh 29.46 in997.6 mb 0.00 in0.0 mm 0.00 in0.0 mm 0.00 in0.0 mm
12:49 AM 35.5°F1.9°C 31.7°F-0.2°C 86% 1.7 mph WSW2.7 kmh WSW 2.5 mph4.0 kmh 29.46 in997.6 mb 0.00 in0.0 mm 0.00 in0.0 mm 0.00 in0.0 mm
12:44 AM 36.5°F2.5°C 32.4°F0.2°C 85% 0.4 mph WNW0.6 kmh WNW 1.2 mph1.9 kmh 29.46 in997.6 mb 0.00 in0.0 mm 0.00 in0.0 mm 0.00 in0.0 mm
12:39 AM 37.3°F2.9°C 33.2°F0.7°C 85% 0.5 mph WNW0.8 kmh WNW 1.9 mph3.1 kmh 29.46 in997.6 mb 0.00 in0.0 mm 0.00 in0.0 mm 0.00 in0.0 mm
12:34 AM 37.5°F3.1°C 33.4°F0.8°C 85% 2.3 mph WSW3.7 kmh WSW 3.5 mph5.6 kmh 29.46 in997.6 mb 0.00 in0.0 mm 0.00 in0.0 mm 0.00 in0.0 mm
12:29 AM 37.5°F3.1°C 33.4°F0.8°C 85% 2.4 mph WSW3.9 kmh WSW 5.6 mph9.0 kmh 29.46 in997.6 mb 0.00 in0.0 mm 0.00 in0.0 mm 0.00 in0.0 mm
12:24 AM 37.6°F3.1°C 33.5°F0.8°C 85% 2.7 mph WSW4.3 kmh WSW 4.4 mph7.1 kmh 29.46 in997.6 mb 0.00 in0.0 mm 0.00 in0.0 mm 0.00 in0.0 mm
12:19 AM 37.8°F3.2°C 33.7°F0.9°C 85% 1.7 mph WSW2.7 kmh WSW 2.4 mph3.9 kmh 29.46 in997.6 mb 0.00 in0.0 mm 0.00 in0.0 mm 0.00 in0.0 mm
12:14 AM 38.0°F3.3°C 34.2°F1.2°C 86% 3.6 mph WSW5.8 kmh WSW 5.4 mph8.7 kmh 29.46 in997.6 mb 0.00 in0.0 mm 0.00 in0.0 mm 0.00 in0.0 mm
12:09 AM 37.8°F3.2°C 34.0°F1.1°C 86% 2.8 mph WSW4.5 kmh WSW 4.3 mph6.9 kmh 29.46 in997.6 mb 0.00 in0.0 mm 0.00 in0.0 mm 0.00 in0.0 mm
12:04 AM 37.7°F3.2°C 34.2°F1.2°C 87% 3.6 mph WSW5.8 kmh WSW 5.6 mph9.0 kmh 29.46 in997.6 mb 0.00 in0.0 mm 0.00 in0.0 mm 0.00 in0.0 mm